sensor_id;sensor_type;location;lat;lon;timestamp;temperature;humidity
80228;DHT22;69539;42.138;24.742;2024-01-07T00:00:34;14.90;50.30
80228;DHT22;69539;42.138;24.742;2024-01-07T00:03:00;14.90;50.30
80228;DHT22;69539;42.138;24.742;2024-01-07T00:05:26;14.90;50.30
80228;DHT22;69539;42.138;24.742;2024-01-07T00:07:51;14.90;50.30
80228;DHT22;69539;42.138;24.742;2024-01-07T00:10:17;14.90;50.30
80228;DHT22;69539;42.138;24.742;2024-01-07T00:12:43;14.90;50.30
80228;DHT22;69539;42.138;24.742;2024-01-07T00:15:09;14.90;50.40
80228;DHT22;69539;42.138;24.742;2024-01-07T00:17:35;14.90;51.40
80228;DHT22;69539;42.138;24.742;2024-01-07T00:20:01;14.90;50.30
80228;DHT22;69539;42.138;24.742;2024-01-07T00:22:26;14.90;50.30
80228;DHT22;69539;42.138;24.742;2024-01-07T00:24:52;14.90;50.30
80228;DHT22;69539;42.138;24.742;2024-01-07T00:27:18;14.90;50.30
80228;DHT22;69539;42.138;24.742;2024-01-07T00:29:43;14.90;50.30
80228;DHT22;69539;42.138;24.742;2024-01-07T00:32:09;14.90;50.30
80228;DHT22;69539;42.138;24.742;2024-01-07T00:34:35;14.90;50.30
80228;DHT22;69539;42.138;24.742;2024-01-07T00:37:00;14.90;50.30
80228;DHT22;69539;42.138;24.742;2024-01-07T00:39:26;14.90;50.20
80228;DHT22;69539;42.138;24.742;2024-01-07T00:41:52;14.90;50.20
80228;DHT22;69539;42.138;24.742;2024-01-07T00:44:17;14.90;50.20
80228;DHT22;69539;42.138;24.742;2024-01-07T00:46:43;14.90;50.30
80228;DHT22;69539;42.138;24.742;2024-01-07T00:49:08;14.90;50.20
80228;DHT22;69539;42.138;24.742;2024-01-07T00:51:34;14.90;50.20
80228;DHT22;69539;42.138;24.742;2024-01-07T00:54:00;14.90;50.30
80228;DHT22;69539;42.138;24.742;2024-01-07T00:56:26;14.90;50.10
80228;DHT22;69539;42.138;24.742;2024-01-07T00:58:52;14.90;50.10
80228;DHT22;69539;42.138;24.742;2024-01-07T01:01:18;14.90;50.10
80228;DHT22;69539;42.138;24.742;2024-01-07T01:03:43;14.90;50.10
80228;DHT22;69539;42.138;24.742;2024-01-07T01:06:09;14.90;51.10
80228;DHT22;69539;42.138;24.742;2024-01-07T01:08:34;14.90;50.00
80228;DHT22;69539;42.138;24.742;2024-01-07T01:11:00;15.00;50.10
80228;DHT22;69539;42.138;24.742;2024-01-07T01:13:26;14.90;50.10
80228;DHT22;69539;42.138;24.742;2024-01-07T01:15:51;15.00;50.00
80228;DHT22;69539;42.138;24.742;2024-01-07T01:18:17;15.00;50.00
80228;DHT22;69539;42.138;24.742;2024-01-07T01:20:43;15.00;49.90
80228;DHT22;69539;42.138;24.742;2024-01-07T01:23:09;15.00;49.90
80228;DHT22;69539;42.138;24.742;2024-01-07T01:25:34;15.00;49.90
80228;DHT22;69539;42.138;24.742;2024-01-07T01:28:01;15.00;51.00
80228;DHT22;69539;42.138;24.742;2024-01-07T01:30:27;15.00;49.90
80228;DHT22;69539;42.138;24.742;2024-01-07T01:32:56;15.00;49.90
80228;DHT22;69539;42.138;24.742;2024-01-07T01:35:21;15.00;49.90
80228;DHT22;69539;42.138;24.742;2024-01-07T01:37:47;15.00;49.90
80228;DHT22;69539;42.138;24.742;2024-01-07T01:40:13;15.00;49.80
80228;DHT22;69539;42.138;24.742;2024-01-07T01:42:38;15.00;49.90
80228;DHT22;69539;42.138;24.742;2024-01-07T01:45:04;15.00;49.90
80228;DHT22;69539;42.138;24.742;2024-01-07T01:47:31;15.00;49.80
80228;DHT22;69539;42.138;24.742;2024-01-07T01:49:57;15.00;49.90
80228;DHT22;69539;42.138;24.742;2024-01-07T01:52:23;15.00;49.80
80228;DHT22;69539;42.138;24.742;2024-01-07T01:54:49;15.00;49.90
80228;DHT22;69539;42.138;24.742;2024-01-07T01:57:19;15.00;49.80
80228;DHT22;69539;42.138;24.742;2024-01-07T01:59:48;15.00;49.90
80228;DHT22;69539;42.138;24.742;2024-01-07T02:02:14;15.00;49.90
80228;DHT22;69539;42.138;24.742;2024-01-07T02:04:40;15.00;50.90
80228;DHT22;69539;42.138;24.742;2024-01-07T02:07:05;15.00;49.80
80228;DHT22;69539;42.138;24.742;2024-01-07T02:09:31;15.00;49.80
80228;DHT22;69539;42.138;24.742;2024-01-07T02:12:15;15.00;49.90
80228;DHT22;69539;42.138;24.742;2024-01-07T02:14:41;15.00;49.90
80228;DHT22;69539;42.138;24.742;2024-01-07T02:17:07;15.00;49.90
80228;DHT22;69539;42.138;24.742;2024-01-07T02:19:33;15.00;50.00
80228;DHT22;69539;42.138;24.742;2024-01-07T02:21:59;15.00;49.90
80228;DHT22;69539;42.138;24.742;2024-01-07T02:24:24;15.00;49.90
80228;DHT22;69539;42.138;24.742;2024-01-07T02:26:50;15.00;49.90
80228;DHT22;69539;42.138;24.742;2024-01-07T02:29:16;15.00;50.00
80228;DHT22;69539;42.138;24.742;2024-01-07T02:31:41;15.00;49.90
80228;DHT22;69539;42.138;24.742;2024-01-07T02:34:09;15.00;49.90
80228;DHT22;69539;42.138;24.742;2024-01-07T02:36:35;15.00;49.90
80228;DHT22;69539;42.138;24.742;2024-01-07T02:39:01;15.00;49.90
80228;DHT22;69539;42.138;24.742;2024-01-07T02:41:26;15.00;49.90
80228;DHT22;69539;42.138;24.742;2024-01-07T02:43:52;15.00;51.00
80228;DHT22;69539;42.138;24.742;2024-01-07T02:46:20;15.00;49.90
80228;DHT22;69539;42.138;24.742;2024-01-07T02:48:45;15.00;49.90
80228;DHT22;69539;42.138;24.742;2024-01-07T02:51:11;15.00;50.00
80228;DHT22;69539;42.138;24.742;2024-01-07T02:53:36;15.00;49.90
80228;DHT22;69539;42.138;24.742;2024-01-07T02:56:02;15.00;50.00
80228;DHT22;69539;42.138;24.742;2024-01-07T02:58:28;15.00;49.90
80228;DHT22;69539;42.138;24.742;2024-01-07T03:00:54;15.00;49.90
80228;DHT22;69539;42.138;24.742;2024-01-07T03:03:19;15.00;50.00
80228;DHT22;69539;42.138;24.742;2024-01-07T03:05:45;15.00;50.00
80228;DHT22;69539;42.138;24.742;2024-01-07T03:08:11;15.00;50.00
80228;DHT22;69539;42.138;24.742;2024-01-07T03:10:36;15.00;50.00
80228;DHT22;69539;42.138;24.742;2024-01-07T03:13:03;15.00;50.00
80228;DHT22;69539;42.138;24.742;2024-01-07T03:15:28;15.00;50.00
80228;DHT22;69539;42.138;24.742;2024-01-07T03:17:54;15.00;50.00
80228;DHT22;69539;42.138;24.742;2024-01-07T03:20:20;15.00;50.00
80228;DHT22;69539;42.138;24.742;2024-01-07T03:22:45;15.10;50.00
80228;DHT22;69539;42.138;24.742;2024-01-07T03:25:11;15.00;50.00
80228;DHT22;69539;42.138;24.742;2024-01-07T03:27:37;15.00;50.00
80228;DHT22;69539;42.138;24.742;2024-01-07T03:30:03;15.00;50.00
80228;DHT22;69539;42.138;24.742;2024-01-07T03:32:28;15.00;50.00
80228;DHT22;69539;42.138;24.742;2024-01-07T03:34:54;15.10;50.10
80228;DHT22;69539;42.138;24.742;2024-01-07T03:37:20;15.10;50.10
80228;DHT22;69539;42.138;24.742;2024-01-07T03:39:47;15.10;50.10
80228;DHT22;69539;42.138;24.742;2024-01-07T03:42:13;15.10;50.10
80228;DHT22;69539;42.138;24.742;2024-01-07T03:44:39;15.10;50.10
80228;DHT22;69539;42.138;24.742;2024-01-07T03:47:08;15.10;50.10
80228;DHT22;69539;42.138;24.742;2024-01-07T03:49:36;15.10;51.20
80228;DHT22;69539;42.138;24.742;2024-01-07T03:52:02;15.10;50.10
80228;DHT22;69539;42.138;24.742;2024-01-07T03:54:27;15.10;50.00
80228;DHT22;69539;42.138;24.742;2024-01-07T03:56:53;15.10;50.10
80228;DHT22;69539;42.138;24.742;2024-01-07T03:59:19;15.20;50.00
80228;DHT22;69539;42.138;24.742;2024-01-07T04:01:44;15.20;50.10
80228;DHT22;69539;42.138;24.742;2024-01-07T04:04:10;15.20;50.00
80228;DHT22;69539;42.138;24.742;2024-01-07T04:06:35;15.20;50.00
80228;DHT22;69539;42.138;24.742;2024-01-07T04:09:01;15.20;50.00
80228;DHT22;69539;42.138;24.742;2024-01-07T04:11:28;15.20;50.00
80228;DHT22;69539;42.138;24.742;2024-01-07T04:13:54;15.20;49.90
80228;DHT22;69539;42.138;24.742;2024-01-07T04:16:20;15.20;50.00
80228;DHT22;69539;42.138;24.742;2024-01-07T04:18:46;15.20;49.90
80228;DHT22;69539;42.138;24.742;2024-01-07T04:21:12;15.30;50.00
80228;DHT22;69539;42.138;24.742;2024-01-07T04:23:39;15.30;50.00
80228;DHT22;69539;42.138;24.742;2024-01-07T04:26:09;15.30;50.00
80228;DHT22;69539;42.138;24.742;2024-01-07T04:28:34;15.30;50.00
80228;DHT22;69539;42.138;24.742;2024-01-07T04:31:00;15.30;49.90
80228;DHT22;69539;42.138;24.742;2024-01-07T04:33:26;15.30;49.90
80228;DHT22;69539;42.138;24.742;2024-01-07T04:35:51;15.30;49.90
80228;DHT22;69539;42.138;24.742;2024-01-07T04:38:17;15.40;49.90
80228;DHT22;69539;42.138;24.742;2024-01-07T04:40:43;15.30;49.80
80228;DHT22;69539;42.138;24.742;2024-01-07T04:43:08;15.30;49.90
80228;DHT22;69539;42.138;24.742;2024-01-07T04:45:34;15.40;49.90
80228;DHT22;69539;42.138;24.742;2024-01-07T04:48:00;15.40;49.90
80228;DHT22;69539;42.138;24.742;2024-01-07T04:50:25;15.40;49.80
80228;DHT22;69539;42.138;24.742;2024-01-07T04:52:51;15.40;49.90
80228;DHT22;69539;42.138;24.742;2024-01-07T04:55:17;15.40;49.80
80228;DHT22;69539;42.138;24.742;2024-01-07T04:57:43;15.40;49.80
80228;DHT22;69539;42.138;24.742;2024-01-07T05:00:09;15.40;49.70
80228;DHT22;69539;42.138;24.742;2024-01-07T05:02:35;15.40;49.80
80228;DHT22;69539;42.138;24.742;2024-01-07T05:05:01;15.40;49.80
80228;DHT22;69539;42.138;24.742;2024-01-07T05:07:26;15.40;49.80
80228;DHT22;69539;42.138;24.742;2024-01-07T05:09:52;15.40;49.80
80228;DHT22;69539;42.138;24.742;2024-01-07T05:12:18;15.40;49.80
80228;DHT22;69539;42.138;24.742;2024-01-07T05:14:43;15.40;49.80
80228;DHT22;69539;42.138;24.742;2024-01-07T05:17:09;15.40;49.80
80228;DHT22;69539;42.138;24.742;2024-01-07T05:19:35;15.40;49.80
80228;DHT22;69539;42.138;24.742;2024-01-07T05:22:01;15.40;49.80
80228;DHT22;69539;42.138;24.742;2024-01-07T05:24:26;15.40;49.80
80228;DHT22;69539;42.138;24.742;2024-01-07T05:26:52;15.40;49.80
80228;DHT22;69539;42.138;24.742;2024-01-07T05:29:18;15.40;49.80
80228;DHT22;69539;42.138;24.742;2024-01-07T05:31:43;15.40;49.80
80228;DHT22;69539;42.138;24.742;2024-01-07T05:34:09;15.40;49.80
80228;DHT22;69539;42.138;24.742;2024-01-07T05:36:35;15.40;49.90
80228;DHT22;69539;42.138;24.742;2024-01-07T05:39:01;15.40;49.90
80228;DHT22;69539;42.138;24.742;2024-01-07T05:41:26;15.40;49.90
80228;DHT22;69539;42.138;24.742;2024-01-07T05:43:52;15.40;49.90
80228;DHT22;69539;42.138;24.742;2024-01-07T05:46:18;15.40;49.90
80228;DHT22;69539;42.138;24.742;2024-01-07T05:48:49;15.40;50.00
80228;DHT22;69539;42.138;24.742;2024-01-07T05:51:16;15.40;50.00
80228;DHT22;69539;42.138;24.742;2024-01-07T05:53:43;15.40;50.00
80228;DHT22;69539;42.138;24.742;2024-01-07T05:56:09;15.40;50.00
80228;DHT22;69539;42.138;24.742;2024-01-07T05:58:35;15.30;51.00
80228;DHT22;69539;42.138;24.742;2024-01-07T06:01:01;15.40;50.10
80228;DHT22;69539;42.138;24.742;2024-01-07T06:03:27;15.30;50.00
80228;DHT22;69539;42.138;24.742;2024-01-07T06:05:52;15.30;50.00
80228;DHT22;69539;42.138;24.742;2024-01-07T06:08:18;15.30;50.10
80228;DHT22;69539;42.138;24.742;2024-01-07T06:10:44;15.30;50.10
80228;DHT22;69539;42.138;24.742;2024-01-07T06:13:10;15.30;50.10
80228;DHT22;69539;42.138;24.742;2024-01-07T06:15:36;15.30;50.10
80228;DHT22;69539;42.138;24.742;2024-01-07T06:18:01;15.30;50.20
80228;DHT22;69539;42.138;24.742;2024-01-07T06:20:27;15.30;50.20
80228;DHT22;69539;42.138;24.742;2024-01-07T06:22:53;15.30;50.30
80228;DHT22;69539;42.138;24.742;2024-01-07T06:25:19;15.30;50.30
80228;DHT22;69539;42.138;24.742;2024-01-07T06:27:45;15.30;50.40
80228;DHT22;69539;42.138;24.742;2024-01-07T06:30:11;15.30;50.30
80228;DHT22;69539;42.138;24.742;2024-01-07T06:32:37;15.30;50.30
80228;DHT22;69539;42.138;24.742;2024-01-07T06:35:03;15.30;50.40
80228;DHT22;69539;42.138;24.742;2024-01-07T06:37:30;15.30;50.40
80228;DHT22;69539;42.138;24.742;2024-01-07T06:39:56;15.40;50.40
80228;DHT22;69539;42.138;24.742;2024-01-07T06:42:24;15.40;50.30
80228;DHT22;69539;42.138;24.742;2024-01-07T06:44:49;15.60;50.10
80228;DHT22;69539;42.138;24.742;2024-01-07T06:47:15;15.70;49.90
80228;DHT22;69539;42.138;24.742;2024-01-07T06:49:41;15.90;49.50
80228;DHT22;69539;42.138;24.742;2024-01-07T06:52:06;16.10;49.10
80228;DHT22;69539;42.138;24.742;2024-01-07T06:54:32;16.40;48.90
80228;DHT22;69539;42.138;24.742;2024-01-07T06:56:58;16.50;48.50
80228;DHT22;69539;42.138;24.742;2024-01-07T06:59:24;16.70;48.20
80228;DHT22;69539;42.138;24.742;2024-01-07T07:01:49;16.90;48.00
80228;DHT22;69539;42.138;24.742;2024-01-07T07:04:15;17.10;47.80
80228;DHT22;69539;42.138;24.742;2024-01-07T07:06:41;17.20;47.60
80228;DHT22;69539;42.138;24.742;2024-01-07T07:09:06;17.30;47.60
80228;DHT22;69539;42.138;24.742;2024-01-07T07:11:32;17.20;47.60
80228;DHT22;69539;42.138;24.742;2024-01-07T07:13:58;17.20;47.70
80228;DHT22;69539;42.138;24.742;2024-01-07T07:16:23;17.20;47.90
80228;DHT22;69539;42.138;24.742;2024-01-07T07:18:50;17.10;48.00
80228;DHT22;69539;42.138;24.742;2024-01-07T07:21:16;17.10;48.20
80228;DHT22;69539;42.138;24.742;2024-01-07T07:23:41;17.10;48.20
80228;DHT22;69539;42.138;24.742;2024-01-07T07:26:07;17.00;48.30
80228;DHT22;69539;42.138;24.742;2024-01-07T07:28:33;17.00;48.40
80228;DHT22;69539;42.138;24.742;2024-01-07T07:30:59;17.20;48.40
80228;DHT22;69539;42.138;24.742;2024-01-07T07:33:25;17.30;48.10
80228;DHT22;69539;42.138;24.742;2024-01-07T07:35:50;17.60;47.70
80228;DHT22;69539;42.138;24.742;2024-01-07T07:38:16;17.60;47.50
80228;DHT22;69539;42.138;24.742;2024-01-07T07:40:42;17.60;47.60
80228;DHT22;69539;42.138;24.742;2024-01-07T07:43:08;17.60;47.70
80228;DHT22;69539;42.138;24.742;2024-01-07T07:45:34;17.60;47.80
80228;DHT22;69539;42.138;24.742;2024-01-07T07:47:59;17.50;47.90
80228;DHT22;69539;42.138;24.742;2024-01-07T07:50:25;17.50;48.10
80228;DHT22;69539;42.138;24.742;2024-01-07T07:52:51;17.40;48.10
80228;DHT22;69539;42.138;24.742;2024-01-07T07:55:17;17.40;48.30
80228;DHT22;69539;42.138;24.742;2024-01-07T07:57:42;17.40;48.30
80228;DHT22;69539;42.138;24.742;2024-01-07T08:00:08;17.40;48.40
80228;DHT22;69539;42.138;24.742;2024-01-07T08:02:38;17.40;48.50
80228;DHT22;69539;42.138;24.742;2024-01-07T08:05:04;17.40;48.50
80228;DHT22;69539;42.138;24.742;2024-01-07T08:07:29;17.40;48.60
80228;DHT22;69539;42.138;24.742;2024-01-07T08:09:55;17.30;48.60
80228;DHT22;69539;42.138;24.742;2024-01-07T08:12:23;17.40;48.70
80228;DHT22;69539;42.138;24.742;2024-01-07T08:14:49;17.30;48.70
80228;DHT22;69539;42.138;24.742;2024-01-07T08:17:14;17.40;48.80
80228;DHT22;69539;42.138;24.742;2024-01-07T08:19:40;17.40;48.80
80228;DHT22;69539;42.138;24.742;2024-01-07T08:22:06;17.30;48.70
80228;DHT22;69539;42.138;24.742;2024-01-07T08:24:31;17.30;48.90
80228;DHT22;69539;42.138;24.742;2024-01-07T08:26:57;17.40;48.90
80228;DHT22;69539;42.138;24.742;2024-01-07T08:29:23;17.30;48.90
80228;DHT22;69539;42.138;24.742;2024-01-07T08:31:49;17.40;49.00
80228;DHT22;69539;42.138;24.742;2024-01-07T08:34:14;17.40;49.00
80228;DHT22;69539;42.138;24.742;2024-01-07T08:36:41;17.40;49.00
80228;DHT22;69539;42.138;24.742;2024-01-07T08:39:07;17.40;49.10
80228;DHT22;69539;42.138;24.742;2024-01-07T08:41:33;17.40;49.60
80228;DHT22;69539;42.138;24.742;2024-01-07T08:43:59;17.40;49.20
80228;DHT22;69539;42.138;24.742;2024-01-07T08:46:25;17.40;49.10
80228;DHT22;69539;42.138;24.742;2024-01-07T08:48:50;17.50;49.20
80228;DHT22;69539;42.138;24.742;2024-01-07T08:51:16;17.50;49.20
80228;DHT22;69539;42.138;24.742;2024-01-07T08:53:42;17.50;49.20
80228;DHT22;69539;42.138;24.742;2024-01-07T08:56:08;17.50;49.20
80228;DHT22;69539;42.138;24.742;2024-01-07T08:58:34;17.60;49.30
80228;DHT22;69539;42.138;24.742;2024-01-07T09:01:00;17.60;49.30
80228;DHT22;69539;42.138;24.742;2024-01-07T09:03:25;17.60;49.30
80228;DHT22;69539;42.138;24.742;2024-01-07T09:05:51;17.60;49.30
80228;DHT22;69539;42.138;24.742;2024-01-07T09:08:17;17.60;49.40
80228;DHT22;69539;42.138;24.742;2024-01-07T09:10:43;17.60;49.40
80228;DHT22;69539;42.138;24.742;2024-01-07T09:13:08;17.60;49.40
80228;DHT22;69539;42.138;24.742;2024-01-07T09:15:34;17.60;49.50
80228;DHT22;69539;42.138;24.742;2024-01-07T09:18:00;17.60;49.50
80228;DHT22;69539;42.138;24.742;2024-01-07T09:20:25;17.50;49.50
80228;DHT22;69539;42.138;24.742;2024-01-07T09:22:51;17.60;49.60
80228;DHT22;69539;42.138;24.742;2024-01-07T09:25:16;17.60;49.60
80228;DHT22;69539;42.138;24.742;2024-01-07T09:27:42;17.60;49.50
80228;DHT22;69539;42.138;24.742;2024-01-07T09:30:09;17.60;49.60
80228;DHT22;69539;42.138;24.742;2024-01-07T09:32:41;17.60;49.60
80228;DHT22;69539;42.138;24.742;2024-01-07T09:35:07;17.60;49.60
80228;DHT22;69539;42.138;24.742;2024-01-07T09:37:33;17.60;49.60
80228;DHT22;69539;42.138;24.742;2024-01-07T09:39:58;17.50;49.70
80228;DHT22;69539;42.138;24.742;2024-01-07T09:42:24;17.60;49.80
80228;DHT22;69539;42.138;24.742;2024-01-07T09:44:50;17.60;49.80
80228;DHT22;69539;42.138;24.742;2024-01-07T09:47:16;17.60;49.80
80228;DHT22;69539;42.138;24.742;2024-01-07T09:49:43;17.50;49.70
80228;DHT22;69539;42.138;24.742;2024-01-07T09:52:10;17.50;49.80
80228;DHT22;69539;42.138;24.742;2024-01-07T09:54:37;17.50;49.80
80228;DHT22;69539;42.138;24.742;2024-01-07T09:57:04;17.60;49.90
80228;DHT22;69539;42.138;24.742;2024-01-07T09:59:36;17.50;49.90
80228;DHT22;69539;42.138;24.742;2024-01-07T10:02:03;17.60;49.90
80228;DHT22;69539;42.138;24.742;2024-01-07T10:04:29;17.60;49.90
80228;DHT22;69539;42.138;24.742;2024-01-07T10:06:56;17.60;49.90
80228;DHT22;69539;42.138;24.742;2024-01-07T10:09:29;17.60;50.00
80228;DHT22;69539;42.138;24.742;2024-01-07T10:11:55;17.60;50.00
80228;DHT22;69539;42.138;24.742;2024-01-07T10:14:20;17.50;49.90
80228;DHT22;69539;42.138;24.742;2024-01-07T10:16:51;17.60;50.00
80228;DHT22;69539;42.138;24.742;2024-01-07T10:19:24;17.60;50.00
80228;DHT22;69539;42.138;24.742;2024-01-07T10:22:04;17.60;50.10
80228;DHT22;69539;42.138;24.742;2024-01-07T10:24:37;17.60;50.00
80228;DHT22;69539;42.138;24.742;2024-01-07T10:27:04;17.60;49.90
80228;DHT22;69539;42.138;24.742;2024-01-07T10:29:30;17.70;50.00
80228;DHT22;69539;42.138;24.742;2024-01-07T10:32:00;17.70;49.90
80228;DHT22;69539;42.138;24.742;2024-01-07T10:34:35;17.70;49.90
80228;DHT22;69539;42.138;24.742;2024-01-07T10:37:02;17.70;49.90
80228;DHT22;69539;42.138;24.742;2024-01-07T10:39:29;17.70;49.90
80228;DHT22;69539;42.138;24.742;2024-01-07T10:41:56;17.70;49.90
80228;DHT22;69539;42.138;24.742;2024-01-07T10:44:27;17.80;49.90
80228;DHT22;69539;42.138;24.742;2024-01-07T10:46:56;17.80;49.90
80228;DHT22;69539;42.138;24.742;2024-01-07T10:49:26;17.80;50.00
80228;DHT22;69539;42.138;24.742;2024-01-07T10:52:06;17.80;49.90
80228;DHT22;69539;42.138;24.742;2024-01-07T10:54:34;17.90;49.90
80228;DHT22;69539;42.138;24.742;2024-01-07T10:57:34;17.90;49.70
80228;DHT22;69539;42.138;24.742;2024-01-07T11:00:02;18.10;49.80
80228;DHT22;69539;42.138;24.742;2024-01-07T11:05:44;18.30;49.50
80228;DHT22;69539;42.138;24.742;2024-01-07T11:10:58;18.50;49.20
80228;DHT22;69539;42.138;24.742;2024-01-07T11:13:37;18.60;49.10
80228;DHT22;69539;42.138;24.742;2024-01-07T11:16:09;18.80;49.00
80228;DHT22;69539;42.138;24.742;2024-01-07T11:18:39;18.90;48.70
80228;DHT22;69539;42.138;24.742;2024-01-07T11:21:05;19.00;48.60
80228;DHT22;69539;42.138;24.742;2024-01-07T11:23:32;19.20;49.60
80228;DHT22;69539;42.138;24.742;2024-01-07T11:26:06;19.30;48.20
80228;DHT22;69539;42.138;24.742;2024-01-07T11:28:54;19.40;48.00
80228;DHT22;69539;42.138;24.742;2024-01-07T11:34:08;19.60;48.00
80228;DHT22;69539;42.138;24.742;2024-01-07T11:36:38;19.60;47.90
80228;DHT22;69539;42.138;24.742;2024-01-07T11:39:05;19.60;47.80
80228;DHT22;69539;42.138;24.742;2024-01-07T11:41:34;19.70;48.10
80228;DHT22;69539;42.138;24.742;2024-01-07T11:44:00;19.70;48.10
80228;DHT22;69539;42.138;24.742;2024-01-07T11:46:27;19.70;48.30
80228;DHT22;69539;42.138;24.742;2024-01-07T11:48:55;19.70;48.40
80228;DHT22;69539;42.138;24.742;2024-01-07T11:53:53;19.70;48.60
80228;DHT22;69539;42.138;24.742;2024-01-07T11:56:19;19.80;49.60
80228;DHT22;69539;42.138;24.742;2024-01-07T11:58:44;19.80;48.50
80228;DHT22;69539;42.138;24.742;2024-01-07T12:01:10;19.80;48.60
80228;DHT22;69539;42.138;24.742;2024-01-07T12:03:36;19.80;48.70
80228;DHT22;69539;42.138;24.742;2024-01-07T12:06:03;19.80;48.60
80228;DHT22;69539;42.138;24.742;2024-01-07T12:08:29;19.80;49.00
80228;DHT22;69539;42.138;24.742;2024-01-07T12:10:56;19.80;49.20
80228;DHT22;69539;42.138;24.742;2024-01-07T12:13:22;19.80;49.40
80228;DHT22;69539;42.138;24.742;2024-01-07T12:15:48;19.80;49.40
80228;DHT22;69539;42.138;24.742;2024-01-07T12:18:14;19.80;49.50
80228;DHT22;69539;42.138;24.742;2024-01-07T12:20:40;19.80;49.60
80228;DHT22;69539;42.138;24.742;2024-01-07T12:23:07;19.70;49.60
80228;DHT22;69539;42.138;24.742;2024-01-07T12:25:33;19.70;49.60
80228;DHT22;69539;42.138;24.742;2024-01-07T12:27:58;19.80;49.70
80228;DHT22;69539;42.138;24.742;2024-01-07T12:30:24;19.80;49.70
80228;DHT22;69539;42.138;24.742;2024-01-07T12:32:53;19.80;49.80
80228;DHT22;69539;42.138;24.742;2024-01-07T12:35:20;19.70;49.80
80228;DHT22;69539;42.138;24.742;2024-01-07T12:37:47;19.80;49.90
80228;DHT22;69539;42.138;24.742;2024-01-07T12:40:13;19.70;49.90
80228;DHT22;69539;42.138;24.742;2024-01-07T12:42:39;19.70;49.80
80228;DHT22;69539;42.138;24.742;2024-01-07T12:45:11;19.70;49.80
80228;DHT22;69539;42.138;24.742;2024-01-07T12:47:37;19.70;49.80
80228;DHT22;69539;42.138;24.742;2024-01-07T12:50:03;19.70;49.70
80228;DHT22;69539;42.138;24.742;2024-01-07T12:52:28;19.70;49.80
80228;DHT22;69539;42.138;24.742;2024-01-07T12:54:54;19.80;49.80
80228;DHT22;69539;42.138;24.742;2024-01-07T12:57:21;19.70;49.70
80228;DHT22;69539;42.138;24.742;2024-01-07T12:59:47;19.80;49.80
80228;DHT22;69539;42.138;24.742;2024-01-07T13:02:13;19.70;49.70
80228;DHT22;69539;42.138;24.742;2024-01-07T13:04:39;19.70;49.60
80228;DHT22;69539;42.138;24.742;2024-01-07T13:07:04;19.70;49.60
80228;DHT22;69539;42.138;24.742;2024-01-07T13:09:30;19.80;49.90
80228;DHT22;69539;42.138;24.742;2024-01-07T13:11:55;19.70;49.50
80228;DHT22;69539;42.138;24.742;2024-01-07T13:14:21;19.70;49.50
80228;DHT22;69539;42.138;24.742;2024-01-07T13:16:47;19.70;49.50
80228;DHT22;69539;42.138;24.742;2024-01-07T13:19:13;19.70;49.50
80228;DHT22;69539;42.138;24.742;2024-01-07T13:21:39;19.70;49.50
80228;DHT22;69539;42.138;24.742;2024-01-07T13:24:05;19.80;49.50
80228;DHT22;69539;42.138;24.742;2024-01-07T13:26:31;19.70;49.50
80228;DHT22;69539;42.138;24.742;2024-01-07T13:28:56;19.70;49.50
80228;DHT22;69539;42.138;24.742;2024-01-07T13:31:22;19.70;49.50
80228;DHT22;69539;42.138;24.742;2024-01-07T13:33:49;19.70;49.50
80228;DHT22;69539;42.138;24.742;2024-01-07T13:36:14;19.70;49.50
80228;DHT22;69539;42.138;24.742;2024-01-07T13:38:40;19.70;49.50
80228;DHT22;69539;42.138;24.742;2024-01-07T13:41:08;19.70;49.50
80228;DHT22;69539;42.138;24.742;2024-01-07T13:43:34;19.70;49.60
80228;DHT22;69539;42.138;24.742;2024-01-07T13:45:59;19.70;49.60
80228;DHT22;69539;42.138;24.742;2024-01-07T13:48:27;19.60;49.50
80228;DHT22;69539;42.138;24.742;2024-01-07T13:50:53;19.60;49.60
80228;DHT22;69539;42.138;24.742;2024-01-07T13:53:19;19.60;49.60
80228;DHT22;69539;42.138;24.742;2024-01-07T13:55:45;19.60;49.70
80228;DHT22;69539;42.138;24.742;2024-01-07T13:58:12;19.60;49.80
80228;DHT22;69539;42.138;24.742;2024-01-07T14:00:37;19.60;49.80
80228;DHT22;69539;42.138;24.742;2024-01-07T14:03:04;19.50;49.70
80228;DHT22;69539;42.138;24.742;2024-01-07T14:05:29;19.50;49.70
80228;DHT22;69539;42.138;24.742;2024-01-07T14:07:55;19.50;49.80
80228;DHT22;69539;42.138;24.742;2024-01-07T14:10:21;19.50;49.90
80228;DHT22;69539;42.138;24.742;2024-01-07T14:12:46;19.50;49.90
80228;DHT22;69539;42.138;24.742;2024-01-07T14:15:13;19.50;49.90
80228;DHT22;69539;42.138;24.742;2024-01-07T14:17:39;19.40;50.00
80228;DHT22;69539;42.138;24.742;2024-01-07T14:20:06;19.40;50.00
80228;DHT22;69539;42.138;24.742;2024-01-07T14:22:33;19.40;50.10
80228;DHT22;69539;42.138;24.742;2024-01-07T14:24:58;19.30;50.00
80228;DHT22;69539;42.138;24.742;2024-01-07T14:27:24;19.30;50.20
80228;DHT22;69539;42.138;24.742;2024-01-07T14:29:50;19.30;50.20
80228;DHT22;69539;42.138;24.742;2024-01-07T14:32:15;19.30;50.20
80228;DHT22;69539;42.138;24.742;2024-01-07T14:34:41;19.20;50.30
80228;DHT22;69539;42.138;24.742;2024-01-07T14:37:08;19.20;50.30
80228;DHT22;69539;42.138;24.742;2024-01-07T14:39:36;19.20;50.30
80228;DHT22;69539;42.138;24.742;2024-01-07T14:42:02;19.20;50.30
80228;DHT22;69539;42.138;24.742;2024-01-07T14:44:29;19.20;50.40
80228;DHT22;69539;42.138;24.742;2024-01-07T14:46:54;19.20;50.30
80228;DHT22;69539;42.138;24.742;2024-01-07T14:49:20;19.20;50.40
80228;DHT22;69539;42.138;24.742;2024-01-07T14:51:46;19.10;50.40
80228;DHT22;69539;42.138;24.742;2024-01-07T14:54:12;19.10;50.50
80228;DHT22;69539;42.138;24.742;2024-01-07T14:56:38;19.10;50.40
80228;DHT22;69539;42.138;24.742;2024-01-07T14:59:04;19.10;50.50
80228;DHT22;69539;42.138;24.742;2024-01-07T15:01:30;19.10;50.50
80228;DHT22;69539;42.138;24.742;2024-01-07T15:03:55;19.10;50.50
80228;DHT22;69539;42.138;24.742;2024-01-07T15:06:21;19.00;50.50
80228;DHT22;69539;42.138;24.742;2024-01-07T15:08:46;19.00;50.50
80228;DHT22;69539;42.138;24.742;2024-01-07T15:11:16;19.00;50.50
80228;DHT22;69539;42.138;24.742;2024-01-07T15:13:42;19.00;50.50
80228;DHT22;69539;42.138;24.742;2024-01-07T15:16:09;18.90;50.50
80228;DHT22;69539;42.138;24.742;2024-01-07T15:18:35;18.90;50.60
80228;DHT22;69539;42.138;24.742;2024-01-07T15:21:02;18.90;50.60